createdAt,value
2022-09-12T00:00:38.292Z,9.40
2022-09-12T00:01:41.938Z,10.21
2022-09-12T00:02:45.541Z,9.92
2022-09-12T00:03:49.147Z,9.61
2022-09-12T00:04:52.760Z,9.97
2022-09-12T00:05:56.193Z,10.09
2022-09-12T00:06:59.837Z,9.34
2022-09-12T00:08:01.841Z,9.75
2022-09-12T00:09:03.668Z,9.36
2022-09-12T00:10:05.565Z,10.05
2022-09-12T00:11:07.458Z,9.09
2022-09-12T00:12:09.303Z,9.74
2022-09-12T00:13:11.101Z,9.11
2022-09-12T00:14:12.894Z,9.35
2022-09-12T00:15:14.690Z,9.61
2022-09-12T00:16:17.357Z,8.91
2022-09-12T00:17:19.245Z,9.55
2022-09-12T00:18:21.059Z,9.50
2022-09-12T00:19:22.859Z,9.47
2022-09-12T00:20:26.378Z,9.13
2022-09-12T00:21:28.374Z,8.87
2022-09-12T00:22:30.211Z,8.99
2022-09-12T00:23:32.034Z,9.73
2022-09-12T00:24:33.830Z,9.15
2022-09-12T00:25:35.625Z,9.73
2022-09-12T00:26:37.767Z,8.69
2022-09-12T00:27:39.600Z,9.16
2022-09-12T00:28:41.479Z,8.93
2022-09-12T00:29:43.342Z,9.30
2022-09-12T00:30:45.243Z,9.80
2022-09-12T00:31:47.200Z,9.07
2022-09-12T00:32:49.078Z,8.70
2022-09-12T00:33:50.891Z,9.17
2022-09-12T00:34:52.681Z,8.84
2022-09-12T00:35:54.487Z,9.17
2022-09-12T00:36:56.401Z,9.27
2022-09-12T00:37:58.231Z,8.51
2022-09-12T00:39:00.042Z,8.75
2022-09-12T00:40:02.170Z,8.82
2022-09-12T00:41:03.952Z,8.99
2022-09-12T00:42:05.847Z,9.03
2022-09-12T00:43:07.674Z,8.60
2022-09-12T00:44:09.462Z,9.68
2022-09-12T00:45:11.271Z,9.01
2022-09-12T00:46:13.778Z,8.44
2022-09-12T00:47:15.581Z,9.14
2022-09-12T00:48:17.435Z,9.02
2022-09-12T00:49:19.236Z,8.17
2022-09-12T00:50:22.034Z,8.65
2022-09-12T00:51:23.828Z,8.42
2022-09-12T00:52:25.632Z,8.56
2022-09-12T00:53:27.476Z,9.07
2022-09-12T00:54:29.262Z,8.64
2022-09-12T00:55:31.049Z,8.87
2022-09-12T00:56:32.950Z,9.03
2022-09-12T00:57:34.833Z,9.21
2022-09-12T00:58:36.656Z,9.06
2022-09-12T00:59:38.444Z,8.76
2022-09-12T01:00:40.850Z,8.49
2022-09-12T01:01:42.738Z,8.37
2022-09-12T01:02:44.534Z,8.76
2022-09-12T01:03:46.364Z,8.69
2022-09-12T01:04:48.154Z,9.14
2022-09-12T01:05:49.949Z,8.72
2022-09-12T01:06:51.838Z,8.95
2022-09-12T01:07:53.636Z,8.59
2022-09-12T01:08:55.471Z,8.61
2022-09-12T01:09:57.249Z,9.29
2022-09-12T01:10:59.247Z,9.07
2022-09-12T01:12:01.049Z,8.64
2022-09-12T01:13:02.882Z,8.30
2022-09-12T01:14:04.703Z,8.56
2022-09-12T01:15:06.500Z,8.82
2022-09-12T01:16:08.799Z,8.81
2022-09-12T01:17:10.611Z,8.62
2022-09-12T01:18:12.309Z,8.46
2022-09-12T01:19:14.046Z,9.15
2022-09-12T01:20:16.151Z,8.72
2022-09-12T01:21:17.935Z,8.75
2022-09-12T01:22:19.752Z,9.08
2022-09-12T01:23:21.636Z,8.19
2022-09-12T01:24:23.485Z,9.13
2022-09-12T01:25:25.268Z,9.14
2022-09-12T01:26:27.671Z,8.48
2022-09-12T01:27:29.369Z,8.77
2022-09-12T01:28:31.147Z,9.35
2022-09-12T01:29:32.976Z,9.36
2022-09-12T01:30:34.875Z,8.85
2022-09-12T01:31:36.694Z,9.24
2022-09-12T01:32:38.493Z,9.87
2022-09-12T01:33:40.187Z,9.89
2022-09-12T01:34:42.011Z,9.97
2022-09-12T01:35:43.811Z,9.66
2022-09-12T01:36:45.713Z,10.00
2022-09-12T01:37:47.513Z,10.34
2022-09-12T01:38:49.303Z,9.79
2022-09-12T01:39:52.695Z,10.02
2022-09-12T01:40:54.571Z,10.12
2022-09-12T01:41:58.072Z,9.91
2022-09-12T01:42:59.885Z,9.98
2022-09-12T01:44:01.714Z,9.85
2022-09-12T01:45:03.440Z,9.86
2022-09-12T01:46:05.392Z,9.99
2022-09-12T01:47:07.218Z,10.34
2022-09-12T01:48:09.013Z,9.94
2022-09-12T01:49:10.813Z,10.44
2022-09-12T01:50:12.949Z,10.13
2022-09-12T01:51:14.751Z,10.04
2022-09-12T01:52:16.554Z,10.54
2022-09-12T01:53:18.347Z,9.91
2022-09-12T01:54:20.138Z,9.81
2022-09-12T01:55:21.967Z,10.37
2022-09-12T01:56:24.587Z,9.56
2022-09-12T01:57:26.389Z,9.69
2022-09-12T01:58:28.189Z,9.24
2022-09-12T01:59:29.985Z,8.97
2022-09-12T02:00:31.914Z,9.45
2022-09-12T02:01:33.746Z,9.33
2022-09-12T02:02:35.511Z,9.24
2022-09-12T02:03:37.299Z,9.11
2022-09-12T02:04:39.092Z,8.66
2022-09-12T02:05:40.927Z,8.43
2022-09-12T02:06:42.728Z,9.15
2022-09-12T02:07:44.526Z,8.65
2022-09-12T02:08:46.424Z,9.91
2022-09-12T02:09:48.407Z,10.48
2022-09-12T02:10:50.342Z,11.33
2022-09-12T02:11:52.130Z,10.65
2022-09-12T02:12:53.930Z,10.32
2022-09-12T02:13:55.721Z,8.85
2022-09-12T02:14:57.594Z,8.25
2022-09-12T02:15:59.430Z,7.89
2022-09-12T02:17:01.228Z,8.13
2022-09-12T02:18:02.927Z,7.67
2022-09-12T02:19:04.724Z,8.38
2022-09-12T02:20:06.627Z,8.23
2022-09-12T02:21:08.465Z,8.36
2022-09-12T02:22:10.250Z,8.25
2022-09-12T02:23:11.948Z,8.47
2022-09-12T02:24:13.745Z,7.94
2022-09-12T02:25:15.553Z,7.93
2022-09-12T02:26:18.301Z,7.63
2022-09-12T02:27:20.100Z,8.16
2022-09-12T02:28:21.893Z,7.56
2022-09-12T02:29:23.684Z,8.05
2022-09-12T02:30:26.102Z,7.94
2022-09-12T02:31:28.056Z,8.23
2022-09-12T02:32:29.870Z,7.61
2022-09-12T02:33:31.659Z,7.82
2022-09-12T02:34:33.448Z,7.69
2022-09-12T02:35:35.240Z,8.35
2022-09-12T02:36:37.187Z,8.11
2022-09-12T02:37:38.989Z,7.68
2022-09-12T02:38:40.778Z,8.03
2022-09-12T02:39:45.326Z,8.37
2022-09-12T02:40:46.277Z,8.17
2022-09-12T02:41:48.126Z,8.35
2022-09-12T02:42:49.931Z,7.90
2022-09-12T02:43:51.712Z,8.36
2022-09-12T02:44:53.515Z,8.12
2022-09-12T02:45:55.699Z,7.99
2022-09-12T02:46:57.698Z,7.72
2022-09-12T02:47:59.506Z,7.98
2022-09-12T02:49:01.300Z,7.40
2022-09-12T02:50:03.194Z,7.96
2022-09-12T02:51:04.983Z,7.29
2022-09-12T02:52:06.810Z,7.93
2022-09-12T02:53:08.613Z,7.97
2022-09-12T02:54:10.417Z,7.67
2022-09-12T02:55:12.219Z,7.66
2022-09-12T02:56:15.014Z,7.47
2022-09-12T02:57:20.650Z,7.54
2022-09-12T02:58:20.342Z,7.21
2022-09-12T02:59:22.141Z,7.12
2022-09-12T03:00:24.043Z,7.97
2022-09-12T03:01:26.260Z,7.43
2022-09-12T03:02:28.081Z,7.65
2022-09-12T03:03:29.860Z,7.96
2022-09-12T03:04:31.646Z,7.65
2022-09-12T03:05:33.346Z,7.19
2022-09-12T03:06:35.253Z,7.74
2022-09-12T03:07:37.084Z,7.13
2022-09-12T03:08:38.903Z,7.40
2022-09-12T03:09:40.702Z,7.95
2022-09-12T03:10:42.709Z,7.44
2022-09-12T03:11:44.504Z,7.79
2022-09-12T03:12:46.354Z,7.45
2022-09-12T03:13:48.147Z,7.33
2022-09-12T03:14:49.949Z,7.89
2022-09-12T03:15:51.751Z,7.32
2022-09-12T03:16:53.781Z,7.63
2022-09-12T03:17:55.627Z,7.86
2022-09-12T03:18:57.429Z,7.47
2022-09-12T03:19:59.239Z,6.99
2022-09-12T03:21:01.142Z,7.10
2022-09-12T03:22:02.938Z,7.44
2022-09-12T03:23:04.775Z,7.19
2022-09-12T03:24:06.581Z,7.17
2022-09-12T03:25:08.392Z,6.89
2022-09-12T03:26:10.810Z,7.19
2022-09-12T03:27:12.620Z,7.14
2022-09-12T03:28:14.465Z,7.28
2022-09-12T03:29:16.261Z,6.89
2022-09-12T03:30:18.498Z,6.84
2022-09-12T03:31:20.474Z,7.87
2022-09-12T03:32:22.410Z,7.07
2022-09-12T03:33:24.256Z,6.88
2022-09-12T03:34:26.057Z,7.45
2022-09-12T03:35:27.853Z,7.01
2022-09-12T03:36:29.744Z,6.75
2022-09-12T03:37:31.555Z,6.61
2022-09-12T03:38:33.395Z,6.83
2022-09-12T03:39:35.204Z,7.41
2022-09-12T03:40:37.300Z,6.71
2022-09-12T03:41:39.108Z,6.98
2022-09-12T03:42:40.921Z,6.66
2022-09-12T03:43:42.751Z,7.40
2022-09-12T03:44:44.556Z,6.95
2022-09-12T03:45:46.376Z,6.58
2022-09-12T03:46:48.258Z,6.99
2022-09-12T03:47:50.257Z,6.88
2022-09-12T03:48:52.120Z,6.87
2022-09-12T03:49:53.926Z,6.81
2022-09-12T03:50:55.935Z,7.13
2022-09-12T03:51:57.736Z,7.51
2022-09-12T03:52:59.744Z,6.96
2022-09-12T03:54:01.591Z,6.77
2022-09-12T03:55:03.388Z,6.90
2022-09-12T03:56:05.294Z,7.00
2022-09-12T03:57:07.094Z,6.83
2022-09-12T03:58:09.225Z,7.98
2022-09-12T03:59:11.049Z,7.27
2022-09-12T04:00:19.601Z,7.32
2022-09-12T04:01:18.351Z,7.29
2022-09-12T04:02:20.230Z,6.57
2022-09-12T04:03:22.027Z,7.67
2022-09-12T04:04:23.854Z,7.38
2022-09-12T04:05:25.673Z,6.69
2022-09-12T04:06:28.071Z,6.81
2022-09-12T04:07:29.862Z,6.46
2022-09-12T04:08:31.669Z,7.29
2022-09-12T04:09:33.515Z,7.21
2022-09-12T04:10:35.930Z,7.68
2022-09-12T04:11:37.735Z,6.95
2022-09-12T04:12:39.554Z,7.26
2022-09-12T04:13:41.334Z,7.34
2022-09-12T04:14:43.181Z,7.21
2022-09-12T04:15:44.995Z,7.29
2022-09-12T04:16:47.031Z,7.19
2022-09-12T04:17:48.809Z,7.09
2022-09-12T04:18:50.634Z,7.32
2022-09-12T04:19:52.482Z,7.35
2022-09-12T04:20:54.389Z,7.48
2022-09-12T04:21:56.191Z,6.82
2022-09-12T04:22:57.992Z,7.19
2022-09-12T04:23:59.802Z,7.40
2022-09-12T04:25:01.648Z,7.54
2022-09-12T04:26:03.555Z,7.75
2022-09-12T04:27:07.824Z,7.41
2022-09-12T04:28:08.969Z,7.36
2022-09-12T04:29:10.786Z,7.61
2022-09-12T04:30:13.240Z,7.67
2022-09-12T04:31:15.044Z,7.21
2022-09-12T04:32:16.854Z,7.44
2022-09-12T04:33:18.660Z,7.13
2022-09-12T04:34:20.485Z,7.73
2022-09-12T04:35:22.318Z,8.35
2022-09-12T04:36:25.650Z,8.35
2022-09-12T04:37:27.466Z,8.53
2022-09-12T04:38:29.274Z,8.88
2022-09-12T04:39:31.093Z,7.98
2022-09-12T04:40:33.238Z,8.23
2022-09-12T04:41:35.049Z,8.45
2022-09-12T04:42:37.583Z,8.15
2022-09-12T04:43:39.395Z,11.18
2022-09-12T04:44:41.197Z,8.35
2022-09-12T04:45:43.054Z,8.17
2022-09-12T04:46:44.947Z,7.59
2022-09-12T04:47:46.756Z,8.12
2022-09-12T04:48:49.799Z,8.19
2022-09-12T04:49:52.184Z,7.89
2022-09-12T04:50:54.109Z,7.78
2022-09-12T04:51:55.919Z,7.24
2022-09-12T04:52:57.729Z,7.73
2022-09-12T04:53:59.566Z,7.65
2022-09-12T04:55:01.357Z,8.14
2022-09-12T04:56:03.194Z,8.00
2022-09-12T04:57:05.005Z,7.89
2022-09-12T04:58:06.811Z,7.24
2022-09-12T04:59:08.621Z,8.19
2022-09-12T05:00:11.440Z,7.90
2022-09-12T05:01:13.619Z,8.04
2022-09-12T05:02:15.445Z,7.94
2022-09-12T05:03:17.304Z,8.37
2022-09-12T05:04:19.104Z,7.92
2022-09-12T05:05:20.930Z,7.85
2022-09-12T05:06:23.285Z,7.40
2022-09-12T05:07:25.091Z,7.72
2022-09-12T05:08:26.898Z,8.22
2022-09-12T05:09:28.692Z,7.94
2022-09-12T05:10:30.604Z,8.15
2022-09-12T05:11:59.772Z,8.13
2022-09-12T05:12:36.059Z,8.11
2022-09-12T05:13:37.888Z,8.37
2022-09-12T05:14:39.704Z,8.47
2022-09-12T05:15:42.196Z,8.29
2022-09-12T05:16:49.057Z,7.81
2022-09-12T05:17:47.957Z,8.25
2022-09-12T05:18:49.765Z,8.37
2022-09-12T05:19:51.558Z,8.49
2022-09-12T05:20:53.407Z,8.74
2022-09-12T05:21:55.153Z,8.40
2022-09-12T05:22:56.970Z,8.79
2022-09-12T05:23:58.764Z,8.40
2022-09-12T05:25:00.567Z,9.55
2022-09-12T05:26:02.464Z,9.31
2022-09-12T05:27:04.326Z,9.32
2022-09-12T05:28:06.114Z,9.74
2022-09-12T05:29:07.956Z,9.17
2022-09-12T05:30:10.242Z,9.49
2022-09-12T05:31:12.047Z,9.66
2022-09-12T05:32:13.871Z,9.34
2022-09-12T05:33:15.665Z,8.92
2022-09-12T05:34:17.473Z,9.11
2022-09-12T05:35:19.365Z,10.51
2022-09-12T05:36:23.062Z,10.22
2022-09-12T05:37:24.910Z,9.68
2022-09-12T05:38:26.705Z,10.02
2022-09-12T05:39:28.499Z,9.91
2022-09-12T05:40:30.510Z,10.06
2022-09-12T05:41:32.298Z,10.26
2022-09-12T05:42:34.141Z,9.90
2022-09-12T05:43:35.947Z,10.47
2022-09-12T05:44:37.670Z,10.09
2022-09-12T05:45:39.525Z,9.37
2022-09-12T05:46:41.408Z,9.78
2022-09-12T05:47:43.240Z,9.94
2022-09-12T05:48:45.051Z,9.69
2022-09-12T05:49:46.760Z,10.39
2022-09-12T05:50:48.667Z,10.37
2022-09-12T05:51:50.539Z,9.45
2022-09-12T05:52:52.368Z,10.22
2022-09-12T05:53:54.166Z,10.05
2022-09-12T05:54:55.979Z,9.89
2022-09-12T05:55:57.777Z,9.74
2022-09-12T05:56:59.767Z,9.86
2022-09-12T05:58:01.613Z,9.90
2022-09-12T05:59:03.421Z,9.64
2022-09-12T06:00:05.322Z,11.71
2022-09-12T06:01:07.150Z,11.21
2022-09-12T06:02:09.001Z,10.19
2022-09-12T06:03:12.622Z,10.06
2022-09-12T06:04:14.435Z,9.86
2022-09-12T06:05:16.235Z,10.07
2022-09-12T06:06:18.241Z,9.81
2022-09-12T06:07:20.076Z,9.85
2022-09-12T06:08:21.907Z,10.14
2022-09-12T06:09:23.707Z,10.18
2022-09-12T06:10:26.122Z,9.61
2022-09-12T06:11:27.926Z,9.94
2022-09-12T06:12:29.714Z,9.87
2022-09-12T06:13:31.573Z,9.97
2022-09-12T06:14:33.368Z,10.37
2022-09-12T06:15:35.171Z,9.84
2022-09-12T06:16:37.362Z,9.99
2022-09-12T06:17:39.485Z,10.74
2022-09-12T06:18:41.398Z,10.30
2022-09-12T06:19:43.223Z,10.48
2022-09-12T06:20:45.134Z,11.11
2022-09-12T06:21:47.676Z,11.44
2022-09-12T06:22:49.492Z,12.39
2022-09-12T06:23:51.332Z,12.86
2022-09-12T06:24:57.754Z,12.56
2022-09-12T06:25:57.009Z,12.95
2022-09-12T06:26:58.890Z,13.11
2022-09-12T06:28:00.616Z,13.25
2022-09-12T06:29:02.433Z,13.84
2022-09-12T06:30:04.355Z,13.47
2022-09-12T06:31:06.196Z,13.47
2022-09-12T06:32:08.052Z,14.20
2022-09-12T06:33:09.870Z,14.45
2022-09-12T06:34:11.687Z,13.72
2022-09-12T06:35:13.505Z,13.60
2022-09-12T06:36:15.500Z,13.66
2022-09-12T06:37:17.300Z,14.28
2022-09-12T06:38:19.129Z,14.27
2022-09-12T06:39:22.336Z,13.81
2022-09-12T06:40:24.514Z,14.63
2022-09-12T06:41:26.357Z,12.58
2022-09-12T06:42:28.064Z,11.47
2022-09-12T06:43:29.859Z,10.43
2022-09-12T06:44:31.711Z,9.74
2022-09-12T06:45:33.515Z,10.03
2022-09-12T06:46:35.413Z,9.42
2022-09-12T06:47:37.510Z,9.55
2022-09-12T06:48:41.936Z,8.93
2022-09-12T06:49:42.957Z,8.25
2022-09-12T06:50:44.860Z,8.53
2022-09-12T06:51:46.662Z,8.68
2022-09-12T06:52:48.455Z,8.94
2022-09-12T06:53:50.279Z,8.99
2022-09-12T06:54:52.112Z,9.64
2022-09-12T06:55:53.922Z,9.42
2022-09-12T06:56:55.716Z,9.25
2022-09-12T06:57:57.518Z,9.07
2022-09-12T06:58:59.223Z,8.64
2022-09-12T07:00:01.132Z,9.42
2022-09-12T07:01:02.988Z,9.38
2022-09-12T07:02:04.842Z,9.97
2022-09-12T07:03:06.661Z,9.95
2022-09-12T07:04:08.465Z,9.62
2022-09-12T07:05:10.297Z,11.06
2022-09-12T07:06:12.406Z,10.10
2022-09-12T07:07:14.205Z,9.54
2022-09-12T07:08:15.996Z,10.10
2022-09-12T07:09:17.878Z,11.03
2022-09-12T07:10:22.458Z,11.03
2022-09-12T07:11:25.408Z,10.36
2022-09-12T07:12:27.214Z,10.73
2022-09-12T07:13:29.030Z,10.56
2022-09-12T07:14:30.842Z,10.38
2022-09-12T07:15:32.700Z,11.29
2022-09-12T07:16:34.547Z,11.36
2022-09-12T07:17:36.293Z,9.80
2022-09-12T07:18:38.105Z,9.55
2022-09-12T07:19:39.882Z,9.12
2022-09-12T07:20:41.820Z,8.93
2022-09-12T07:21:43.634Z,9.18
2022-09-12T07:22:45.703Z,9.57
2022-09-12T07:23:47.670Z,8.74
2022-09-12T07:24:49.690Z,8.47
2022-09-12T07:25:51.841Z,7.95
2022-09-12T07:26:53.772Z,8.27
2022-09-12T07:27:55.578Z,7.85
2022-09-12T07:29:12.799Z,7.52
2022-09-12T07:30:01.028Z,7.67
2022-09-12T07:31:02.917Z,7.87
2022-09-12T07:32:04.749Z,8.61
2022-09-12T07:33:06.561Z,7.68
2022-09-12T07:34:08.383Z,7.99
2022-09-12T07:35:10.394Z,8.15
2022-09-12T07:36:13.768Z,7.97
2022-09-12T07:37:15.583Z,8.51
2022-09-12T07:38:17.452Z,8.59
2022-09-12T07:39:19.273Z,8.09
2022-09-12T07:40:22.576Z,8.23
2022-09-12T07:41:24.391Z,8.13
2022-09-12T07:42:26.195Z,8.47
2022-09-12T07:43:28.032Z,8.04
2022-09-12T07:44:29.850Z,8.04
2022-09-12T07:45:31.655Z,7.59
2022-09-12T07:46:33.714Z,7.55
2022-09-12T07:47:35.547Z,7.61
2022-09-12T07:48:37.329Z,7.81
2022-09-12T07:49:39.133Z,7.96
2022-09-12T07:50:45.043Z,8.21
2022-09-12T07:51:44.807Z,8.09
2022-09-12T07:52:46.601Z,8.00
2022-09-12T07:53:48.445Z,7.71
2022-09-12T07:54:50.316Z,7.71
2022-09-12T07:55:53.969Z,7.65
2022-09-12T07:56:56.132Z,7.59
2022-09-12T07:57:57.954Z,7.69
2022-09-12T07:58:59.789Z,7.29
2022-09-12T08:00:01.706Z,7.61
2022-09-12T08:01:03.558Z,7.65
2022-09-12T08:02:05.529Z,8.18
2022-09-12T08:03:07.284Z,8.27
2022-09-12T08:04:09.076Z,7.85
2022-09-12T08:05:10.964Z,7.77
2022-09-12T08:06:14.208Z,8.18
2022-09-12T08:07:16.075Z,9.32
2022-09-12T08:08:17.882Z,9.12
2022-09-12T08:09:19.696Z,9.57
2022-09-12T08:10:21.852Z,9.13
2022-09-12T08:11:23.656Z,8.97
2022-09-12T08:12:25.511Z,8.35
2022-09-12T08:13:27.453Z,8.99
2022-09-12T08:14:29.381Z,9.25
2022-09-12T08:15:31.221Z,9.34
2022-09-12T08:16:33.326Z,8.83
2022-09-12T08:17:35.171Z,8.95
2022-09-12T08:18:36.975Z,9.05
2022-09-12T08:19:38.892Z,9.13
2022-09-12T08:20:40.891Z,9.04
2022-09-12T08:21:43.256Z,8.14
2022-09-12T08:22:45.094Z,8.14
2022-09-12T08:23:46.989Z,8.12
2022-09-12T08:24:48.853Z,7.37
2022-09-12T08:25:50.652Z,7.59
2022-09-12T08:26:53.001Z,7.87
2022-09-12T08:27:54.863Z,7.51
2022-09-12T08:28:56.861Z,7.73
2022-09-12T08:29:58.706Z,7.99
2022-09-12T08:31:00.747Z,8.16
2022-09-12T08:32:02.734Z,9.04
2022-09-12T08:33:04.598Z,8.64
2022-09-12T08:34:06.402Z,8.50
2022-09-12T08:35:08.196Z,8.93
2022-09-12T08:36:10.745Z,8.77
2022-09-12T08:37:12.544Z,8.89
2022-09-12T08:38:14.888Z,9.02
2022-09-12T08:39:16.721Z,9.83
2022-09-12T08:40:19.038Z,10.28
2022-09-12T08:41:20.884Z,8.88
2022-09-12T08:42:22.797Z,11.22
2022-09-12T08:43:24.640Z,10.41
2022-09-12T08:44:26.826Z,9.58
2022-09-12T08:45:28.772Z,10.32
2022-09-12T08:46:30.926Z,10.12
2022-09-12T08:47:32.753Z,10.72
2022-09-12T08:48:34.662Z,10.61
2022-09-12T08:49:36.483Z,9.44
2022-09-12T08:50:38.845Z,10.19
2022-09-12T08:51:40.796Z,10.56
2022-09-12T08:52:43.508Z,10.41
2022-09-12T08:53:45.540Z,9.93
2022-09-12T08:54:47.325Z,10.58
2022-09-12T08:55:49.144Z,10.45
2022-09-12T08:56:51.238Z,9.61
2022-09-12T08:57:53.354Z,11.05
2022-09-12T08:58:55.337Z,10.37
2022-09-12T08:59:57.112Z,10.66
2022-09-12T09:00:59.042Z,10.28
2022-09-12T09:02:01.091Z,10.45
2022-09-12T09:03:02.934Z,12.70
2022-09-12T09:04:05.627Z,13.54
2022-09-12T09:05:08.165Z,10.98
2022-09-12T09:06:10.177Z,11.01
2022-09-12T09:07:12.000Z,11.43
2022-09-12T09:08:13.821Z,11.58
2022-09-12T09:09:15.655Z,11.49
2022-09-12T09:10:17.788Z,11.64
2022-09-12T09:11:19.633Z,11.22
2022-09-12T09:12:21.446Z,10.64
2022-09-12T09:13:23.331Z,11.29
2022-09-12T09:14:25.180Z,11.94
2022-09-12T09:15:27.039Z,11.91
2022-09-12T09:16:29.310Z,11.57
2022-09-12T09:17:31.128Z,11.65
2022-09-12T09:18:32.931Z,11.64
2022-09-12T09:19:34.765Z,11.17
2022-09-12T09:20:36.705Z,11.17
2022-09-12T09:21:38.498Z,11.14
2022-09-12T09:22:40.320Z,10.57
2022-09-12T09:23:42.244Z,10.44
2022-09-12T09:24:44.118Z,10.98
2022-09-12T09:25:45.970Z,11.46
2022-09-12T09:26:47.984Z,12.04
2022-09-12T09:27:49.777Z,10.90
2022-09-12T09:28:52.312Z,11.30
2022-09-12T09:29:55.308Z,11.27
2022-09-12T09:30:58.375Z,11.03
2022-09-12T09:32:01.737Z,10.14
2022-09-12T09:33:03.992Z,9.90
2022-09-12T09:34:05.798Z,9.49
2022-09-12T09:35:07.638Z,10.53
2022-09-12T09:36:09.768Z,9.30
2022-09-12T09:37:11.573Z,9.36
2022-09-12T09:38:13.575Z,9.46
2022-09-12T09:39:15.393Z,9.99
2022-09-12T09:40:19.173Z,9.73
2022-09-12T09:41:21.131Z,9.17
2022-09-12T09:42:23.027Z,8.05
2022-09-12T09:43:24.830Z,8.80
2022-09-12T09:44:26.724Z,9.73
2022-09-12T09:45:28.557Z,8.91
2022-09-12T09:46:30.591Z,8.73
2022-09-12T09:47:32.397Z,8.77
2022-09-12T09:48:34.298Z,8.81
2022-09-12T09:49:36.085Z,8.78
2022-09-12T09:50:38.032Z,8.69
2022-09-12T09:51:39.838Z,9.01
2022-09-12T09:52:41.550Z,10.49
2022-09-12T09:53:43.341Z,12.17
2022-09-12T09:54:45.566Z,11.33
2022-09-12T09:55:47.380Z,10.07
2022-09-12T09:56:49.286Z,8.86
2022-09-12T09:57:51.070Z,9.17
2022-09-12T09:58:52.943Z,8.61
2022-09-12T09:59:54.805Z,8.04
2022-09-12T10:00:56.880Z,8.30
2022-09-12T10:01:59.131Z,8.72
2022-09-12T10:03:00.940Z,8.12
2022-09-12T10:04:02.747Z,8.18
2022-09-12T10:05:04.564Z,8.31
2022-09-12T10:06:06.722Z,7.54
2022-09-12T10:07:08.514Z,7.90
2022-09-12T10:08:10.334Z,7.68
2022-09-12T10:09:12.289Z,8.10
2022-09-12T10:10:14.661Z,8.25
2022-09-12T10:11:16.497Z,7.88
2022-09-12T10:12:18.602Z,8.29
2022-09-12T10:13:20.740Z,7.89
2022-09-12T10:14:22.486Z,7.84
2022-09-12T10:15:24.367Z,8.22
2022-09-12T10:16:26.710Z,7.84
2022-09-12T10:17:33.880Z,8.12
2022-09-12T10:18:32.432Z,9.22
2022-09-12T10:19:34.226Z,8.93
2022-09-12T10:20:36.130Z,9.13
2022-09-12T10:21:40.969Z,8.88
2022-09-12T10:22:41.620Z,8.81
2022-09-12T10:23:43.489Z,8.66
2022-09-12T10:24:45.223Z,8.23
2022-09-12T10:25:47.414Z,8.49
2022-09-12T10:26:52.257Z,8.24
2022-09-12T10:27:53.117Z,8.09
2022-09-12T10:28:54.919Z,8.21
2022-09-12T10:29:56.731Z,7.24
2022-09-12T10:30:58.817Z,7.61
2022-09-12T10:32:00.664Z,7.67
2022-09-12T10:33:02.647Z,8.13
2022-09-12T10:34:04.466Z,7.19
2022-09-12T10:35:06.268Z,6.64
2022-09-12T10:36:08.369Z,7.09
2022-09-12T10:37:10.131Z,7.48
2022-09-12T10:38:11.943Z,7.23
2022-09-12T10:39:13.739Z,7.11
2022-09-12T10:40:15.899Z,7.65
2022-09-12T10:41:17.734Z,7.34
2022-09-12T10:42:23.362Z,7.51
2022-09-12T10:43:23.370Z,7.48
2022-09-12T10:44:25.168Z,7.60
2022-09-12T10:45:26.992Z,7.15
2022-09-12T10:46:29.433Z,7.61
2022-09-12T10:47:31.320Z,7.28
2022-09-12T10:48:33.163Z,7.10
2022-09-12T10:49:35.045Z,7.38
2022-09-12T10:50:37.149Z,6.99
2022-09-12T10:51:38.957Z,6.91
2022-09-12T10:52:41.602Z,7.05
2022-09-12T10:53:43.701Z,7.09
2022-09-12T10:54:45.540Z,7.06
2022-09-12T10:55:47.434Z,6.68
2022-09-12T10:56:49.340Z,7.21
2022-09-12T10:57:51.189Z,6.94
2022-09-12T10:58:53.299Z,7.44
2022-09-12T10:59:55.181Z,7.27
2022-09-12T11:00:57.099Z,7.27
2022-09-12T11:01:59.734Z,7.59
2022-09-12T11:03:02.294Z,7.04
2022-09-12T11:04:04.110Z,7.49
2022-09-12T11:05:05.902Z,8.02
2022-09-12T11:06:08.008Z,7.59
2022-09-12T11:07:09.807Z,7.30
2022-09-12T11:08:11.831Z,8.42
2022-09-12T11:09:13.629Z,7.08
2022-09-12T11:10:16.006Z,7.47
2022-09-12T11:11:17.796Z,7.39
2022-09-12T11:12:19.597Z,7.39
2022-09-12T11:13:21.503Z,7.11
2022-09-12T11:14:23.290Z,7.07
2022-09-12T11:15:25.103Z,7.01
2022-09-12T11:16:27.366Z,7.13
2022-09-12T11:17:29.171Z,7.17
2022-09-12T11:18:31.060Z,7.17
2022-09-12T11:19:32.866Z,6.92
2022-09-12T11:20:34.765Z,7.24
2022-09-12T11:21:36.664Z,6.71
2022-09-12T11:22:38.635Z,7.76
2022-09-12T11:23:40.478Z,7.19
2022-09-12T11:24:42.333Z,6.91
2022-09-12T11:25:44.132Z,8.15
2022-09-12T11:26:46.051Z,7.08
2022-09-12T11:27:47.890Z,8.07
2022-09-12T11:28:49.935Z,8.51
2022-09-12T11:29:51.745Z,7.53
2022-09-12T11:30:53.965Z,7.31
2022-09-12T11:31:55.750Z,7.03
2022-09-12T11:32:57.786Z,7.37
2022-09-12T11:33:59.839Z,7.55
2022-09-12T11:35:01.868Z,7.08
2022-09-12T11:36:03.852Z,7.37
2022-09-12T11:37:10.290Z,8.24
2022-09-12T11:38:09.486Z,7.34
2022-09-12T11:39:11.380Z,8.12
2022-09-12T11:40:13.614Z,7.53
2022-09-12T11:41:15.371Z,7.75
2022-09-12T11:42:17.358Z,7.45
2022-09-12T11:43:19.438Z,7.21
2022-09-12T11:44:21.348Z,7.04
2022-09-12T11:45:23.229Z,7.07
2022-09-12T11:46:26.088Z,8.03
2022-09-12T11:47:28.187Z,6.82
2022-09-12T11:48:30.029Z,7.40
2022-09-12T11:49:35.422Z,7.03
2022-09-12T11:50:35.504Z,7.01
2022-09-12T11:51:37.317Z,7.80
2022-09-12T11:52:39.113Z,7.83
2022-09-12T11:53:40.930Z,7.37
2022-09-12T11:54:42.766Z,7.37
2022-09-12T11:55:44.580Z,7.16
2022-09-12T11:56:46.482Z,7.15
2022-09-12T11:57:48.291Z,7.39
2022-09-12T11:58:50.105Z,6.98
2022-09-12T11:59:51.963Z,7.17
2022-09-12T12:00:53.868Z,7.28
2022-09-12T12:01:55.678Z,7.39
2022-09-12T12:02:57.487Z,6.39
2022-09-12T12:03:59.393Z,7.45
2022-09-12T12:05:01.190Z,7.10
2022-09-12T12:06:03.098Z,7.53
2022-09-12T12:07:04.907Z,7.16
2022-09-12T12:08:06.743Z,7.63
2022-09-12T12:09:08.562Z,6.69
2022-09-12T12:10:10.917Z,6.48
2022-09-12T12:11:12.744Z,6.79
2022-09-12T12:12:14.542Z,6.34
2022-09-12T12:13:16.364Z,6.97
2022-09-12T12:14:18.172Z,6.63
2022-09-12T12:15:20.127Z,6.20
2022-09-12T12:16:22.492Z,6.71
2022-09-12T12:17:24.267Z,6.94
2022-09-12T12:18:26.081Z,7.04
2022-09-12T12:19:28.010Z,6.32
2022-09-12T12:20:30.001Z,7.36
2022-09-12T12:21:31.823Z,6.81
2022-09-12T12:22:33.824Z,7.41
2022-09-12T12:23:35.690Z,9.09
2022-09-12T12:24:37.554Z,10.20
2022-09-12T12:25:39.452Z,9.80
2022-09-12T12:26:41.371Z,12.11
2022-09-12T12:27:43.191Z,9.37
2022-09-12T12:28:45.076Z,11.37
2022-09-12T12:29:46.921Z,11.32
2022-09-12T12:30:48.912Z,9.21
2022-09-12T12:31:51.020Z,7.53
2022-09-12T12:32:53.431Z,7.87
2022-09-12T12:33:55.629Z,7.59
2022-09-12T12:34:57.538Z,7.01
2022-09-12T12:35:59.596Z,7.18
2022-09-12T12:37:07.196Z,6.81
2022-09-12T12:38:05.922Z,6.99
2022-09-12T12:39:08.796Z,6.63
2022-09-12T12:40:11.202Z,6.92
2022-09-12T12:41:13.105Z,7.47
2022-09-12T12:42:19.071Z,7.05
2022-09-12T12:43:19.941Z,7.02
2022-09-12T12:44:25.508Z,6.62
2022-09-12T12:45:27.903Z,7.16
2022-09-12T12:46:30.730Z,6.93
2022-09-12T12:47:33.120Z,7.08
2022-09-12T12:48:35.802Z,6.99
2022-09-12T12:49:41.708Z,6.57
2022-09-12T12:50:44.290Z,6.66
2022-09-12T12:51:47.063Z,7.23
2022-09-12T12:52:49.734Z,7.16
2022-09-12T12:53:54.817Z,6.99
2022-09-12T12:54:58.535Z,6.75
2022-09-12T12:56:00.963Z,6.42
2022-09-12T12:57:03.517Z,6.73
2022-09-12T12:58:05.615Z,7.16
2022-09-12T12:59:07.975Z,7.31
2022-09-12T13:00:09.991Z,6.73
2022-09-12T13:01:11.901Z,7.37
2022-09-12T13:02:14.010Z,7.25
2022-09-12T13:03:16.287Z,6.85
2022-09-12T13:04:18.135Z,6.51
2022-09-12T13:05:19.958Z,6.48
2022-09-12T13:06:23.758Z,6.80
2022-09-12T13:07:25.609Z,7.17
2022-09-12T13:08:31.434Z,6.59
2022-09-12T13:09:33.890Z,6.71
2022-09-12T13:10:36.418Z,6.71
2022-09-12T13:11:38.269Z,6.91
2022-09-12T13:12:40.099Z,7.20
2022-09-12T13:13:42.772Z,6.89
2022-09-12T13:14:45.181Z,6.41
2022-09-12T13:15:47.046Z,7.27
2022-09-12T13:16:49.001Z,7.19
2022-09-12T13:17:50.902Z,6.34
2022-09-12T13:18:52.710Z,6.78
2022-09-12T13:20:16.840Z,7.03
2022-09-12T13:20:58.536Z,6.79
2022-09-12T13:22:00.368Z,6.64
2022-09-12T13:23:02.979Z,6.45
2022-09-12T13:24:04.719Z,6.13
2022-09-12T13:25:06.640Z,6.39
2022-09-12T13:26:09.077Z,6.46
2022-09-12T13:27:10.949Z,6.86
2022-09-12T13:28:12.793Z,6.32
2022-09-12T13:29:14.598Z,6.16
2022-09-12T13:30:16.731Z,6.41
2022-09-12T13:31:18.560Z,6.26
2022-09-12T13:32:20.329Z,6.32
2022-09-12T13:33:22.433Z,5.92
2022-09-12T13:34:24.312Z,6.37
2022-09-12T13:35:26.134Z,7.03
2022-09-12T13:36:28.252Z,7.27
2022-09-12T13:37:30.106Z,7.89
2022-09-12T13:38:31.966Z,7.14
2022-09-12T13:39:33.764Z,7.48
2022-09-12T13:40:35.561Z,6.99
2022-09-12T13:41:37.498Z,7.37